Baltimore, Maryland
Traffic Map
Current Weather Conditions
Baltimore, Maryland
Broken Clouds
Broken Clouds

Feels Like: -2°
Wind Chill: -2° Ceiling: 3600
Heat Index: Visibility: 10mi
Dew Point: -5° Wind: 6mph
Humidity: 64% Direction: 270° (W)
Pressure: 30.1in Gusts: 0mph
Raw Report DataKBWI 190354Z 27005KT 10SM BKN036 BKN100 01/M05 A3010 RMK AO2 SLP193 T00111050
Traffic Incident Summary
Active as of:
Severity:
Category:
InformationThere was an issue retrieving the traffic information for this location. Please try a different location or try again shortly.
Advertisements
Track Severe Weather on mobile